KLNA

Palm Beach County Park Airport

West Palm Beach, Florida, USA
METAR KLNA 201615Z AUTO 11010KT SCT024 BKN030 BKN040 31/25 A3012 RMK AO2 LTG DSNT W THRU NE T03120248 PWINO
Observed Flight Rules
Aug-20 @ 16:15 UTC (10 minutes ago)
Wind Clouds
110° at 10 knots
  • Scattered at 2,400' AGL
  • Broken at 3,000' AGL
  • Broken at 4,000' AGL
Temperatures Readings
Current 31°C / 88°F
Dewpoint 25°C / 77°F
Humidity 70%
Altimeter 30.12" Hg
Pressure 1020 hPa
Elevation 11
METAR KLNA 201615Z AUTO 11010KT SCT024 BKN030 BKN040 31/25 A3012 RMK AO2 LTG DSNT W THRU NE T03120248 PWINO
Observed Flight Rules
Aug-20 @ 16:15 UTC
(10 minutes ago)
Wind
110° at 10 knots
Clouds
  • Scattered at 2,400' AGL
  • Broken at 3,000' AGL
  • Broken at 4,000' AGL
Temperature Dewpoint
31°C / 88°F 25°C / 77°F
Humidity Altimeter Pressure
70% 30.12" Hg 1020 hPa